Time;durP1;ratioP1;P1;durP2;ratioP2;P2;SDS_P1;SDS_P2;PMS_P1;PMS_P2;Temp;Humidity;BMP_temperature;BMP_pressure;BME280_temperature;BME280_humidity;BME280_pressure;Samples;Min_cycle;Max_cycle;Signal;HPM_P1;HPM_P2
2022/05/25 00:00:55;;;;;;;5.82;3.00;;;12.20;99.90;;;;;;5121326;27;20046;-84
2022/05/25 00:03:20;;;;;;;4.28;3.88;;;11.80;99.90;;;;;;5089135;27;20040;-84
2022/05/25 00:05:46;;;;;;;3.78;3.10;;;10.30;99.90;;;;;;5107744;27;20103;-85
2022/05/25 00:08:13;;;;;;;4.43;3.90;;;10.30;99.90;;;;;;5123258;27;20103;-84
2022/05/25 00:10:39;;;;;;;3.70;3.40;;;10.90;99.90;;;;;;5103378;27;20035;-84
2022/05/25 00:13:05;;;;;;;5.07;3.90;;;10.10;99.90;;;;;;5120683;27;20066;-83
2022/05/25 00:15:31;;;;;;;5.22;4.07;;;9.40;99.90;;;;;;5124583;27;20039;-85
2022/05/25 00:17:57;;;;;;;5.25;4.13;;;10.30;99.90;;;;;;5141588;27;20501;-83
2022/05/25 00:20:22;;;;;;;5.28;4.22;;;10.30;99.90;;;;;;5122270;27;20039;-84
2022/05/25 00:22:54;;;;;;;5.22;4.72;;;10.20;99.90;;;;;;5139684;27;20216;-82
2022/05/25 00:25:23;;;;;;;4.60;4.15;;;10.30;99.90;;;;;;5121682;27;20046;-80
2022/05/25 00:27:50;;;;;;;6.43;4.45;;;11.90;99.90;;;;;;5124811;27;20167;-84
2022/05/25 00:30:16;;;;;;;7.25;4.90;;;10.60;99.90;;;;;;5121690;27;20491;-79
2022/05/25 00:32:43;;;;;;;4.65;4.25;;;11.20;99.90;;;;;;5102749;27;20048;-85
2022/05/25 00:35:12;;;;;;;7.03;4.63;;;11.90;99.90;;;;;;5120717;27;20359;-83
2022/05/25 00:37:39;;;;;;;7.53;4.57;;;10.20;99.90;;;;;;5107096;27;20572;-82
2022/05/25 00:40:08;;;;;;;6.45;4.43;;;10.20;99.90;;;;;;5105878;27;20041;-85
2022/05/25 00:42:37;;;;;;;6.30;4.60;;;10.30;99.90;;;;;;5112213;27;20047;-79
2022/05/25 00:45:04;;;;;;;6.95;4.90;;;10.30;99.90;;;;;;5119347;27;20039;-80
2022/05/25 00:47:32;;;;;;;5.45;4.28;;;10.30;99.90;;;;;;5123410;27;20042;-85
2022/05/25 00:49:58;;;;;;;5.15;4.50;;;9.90;99.90;;;;;;5106329;27;20050;-83
2022/05/25 00:52:26;;;;;;;5.18;4.70;;;11.80;99.90;;;;;;5120501;27;20493;-83
2022/05/25 00:54:59;;;;;;;4.97;4.47;;;10.30;99.90;;;;;;5120088;27;20486;-78
2022/05/25 00:57:33;;;;;;;5.07;4.68;;;10.30;99.90;;;;;;5105552;27;20039;-84
2022/05/25 01:00:06;;;;;;;5.20;4.70;;;10.20;99.90;;;;;;5122592;27;20043;-83
2022/05/25 01:02:35;;;;;;;6.13;4.60;;;10.20;99.90;;;;;;5120306;27;20100;-83
2022/05/25 01:05:02;;;;;;;7.07;4.97;;;10.20;99.90;;;;;;5145581;27;20064;-83
2022/05/25 01:07:54;;;;;;;9.25;6.15;;;10.20;99.90;;;;;;5103221;27;20492;-82
2022/05/25 01:10:47;;;;;;;4.95;4.45;;;10.10;99.90;;;;;;5103615;27;20050;-83
2022/05/25 01:13:29;;;;;;;5.03;4.60;;;10.10;99.90;;;;;;5121944;27;20037;-84
2022/05/25 01:16:08;;;;;;;6.05;5.45;;;10.10;99.90;;;;;;5102724;27;20050;-84
2022/05/25 01:18:54;;;;;;;5.57;4.57;;;10.10;99.90;;;;;;5123107;27;20070;-85
2022/05/25 01:21:24;;;;;;;4.90;4.40;;;10.10;99.90;;;;;;5105739;27;20478;-86
2022/05/25 01:24:13;;;;;;;4.85;4.45;;;10.00;99.90;;;;;;5124025;27;20038;-86
2022/05/25 01:27:00;;;;;;;5.20;4.70;;;10.00;99.90;;;;;;5053103;27;20094;-84
2022/05/25 01:29:47;;;;;;;5.32;4.85;;;10.00;99.90;;;;;;5103397;27;20049;-84
2022/05/25 01:32:29;;;;;;;5.40;4.82;;;9.70;99.90;;;;;;5119556;27;20043;-84
2022/05/25 01:35:02;;;;;;;5.80;5.18;;;9.80;99.90;;;;;;5106475;27;20641;-82
2022/05/25 01:37:38;;;;;;;8.57;5.07;;;9.90;99.90;;;;;;5108790;27;20159;-85
2022/05/25 01:40:17;;;;;;;6.18;5.65;;;9.80;99.90;;;;;;5102035;27;20039;-85
2022/05/25 01:42:50;;;;;;;6.30;4.60;;;9.80;99.90;;;;;;5093699;27;20530;-86
2022/05/25 01:45:17;;;;;;;6.40;5.80;;;10.30;99.90;;;;;;5101886;27;20043;-84
2022/05/25 01:47:46;;;;;;;7.82;5.32;;;9.80;99.90;;;;;;5106104;27;20042;-84
2022/05/25 01:50:29;;;;;;;5.72;5.13;;;9.80;99.90;;;;;;5104309;27;20043;-81
2022/05/25 01:52:59;;;;;;;6.75;5.00;;;9.70;99.90;;;;;;5118896;27;20047;-82
2022/05/25 01:55:36;;;;;;;6.15;5.65;;;9.80;99.90;;;;;;5103089;27;20042;-85
2022/05/25 01:58:11;;;;;;;6.43;5.82;;;9.80;99.90;;;;;;5122267;27;20042;-82
2022/05/25 02:00:41;;;;;;;7.82;5.93;;;9.90;99.90;;;;;;5101908;27;20043;-85
2022/05/25 02:06:18;;;;;;;7.55;5.68;;;9.60;99.90;;;;;;5130775;27;20558;-85
2022/05/25 02:09:21;;;;;;;6.57;5.97;;;9.90;99.90;;;;;;5094178;28;20558;-80
2022/05/25 02:11:52;;;;;;;13.73;6.25;;;9.90;99.90;;;;;;5094699;28;20043;-84
2022/05/25 02:14:49;;;;;;;6.57;5.95;;;11.60;99.90;;;;;;5119386;27;20047;-84
2022/05/25 02:17:30;;;;;;;8.68;6.70;;;9.90;99.90;;;;;;5104451;27;20099;-85
2022/05/25 02:20:00;;;;;;;7.22;6.53;;;9.80;99.90;;;;;;5094855;28;20358;-78
2022/05/25 02:22:37;;;;;;;8.30;6.53;;;9.90;99.90;;;;;;5120685;27;20039;-84
2022/05/25 02:25:12;;;;;;;8.48;6.82;;;9.80;99.90;;;;;;5104238;27;20046;-85
2022/05/25 02:28:11;;;;;;;10.90;7.50;;;9.80;99.90;;;;;;5138255;27;20039;-84
2022/05/25 02:30:43;;;;;;;11.02;7.90;;;9.80;99.90;;;;;;5104341;27;20400;-85
2022/05/25 02:33:16;;;;;;;8.88;7.93;;;9.60;99.90;;;;;;5105089;27;20096;-82
2022/05/25 02:35:44;;;;;;;9.65;7.55;;;9.70;99.90;;;;;;5101858;28;20039;-83
2022/05/25 02:38:10;;;;;;;12.10;8.35;;;9.60;99.90;;;;;;5117781;28;20035;-85
2022/05/25 02:40:38;;;;;;;10.10;8.73;;;10.20;99.90;;;;;;5104351;27;20038;-83
2022/05/25 02:43:06;;;;;;;12.68;8.98;;;9.60;99.90;;;;;;5121745;27;20049;-85
2022/05/25 02:45:32;;;;;;;13.15;8.98;;;9.60;99.90;;;;;;5119664;27;20042;-84
2022/05/25 02:47:58;;;;;;;11.30;10.10;;;9.60;99.90;;;;;;5101533;28;20096;-85
2022/05/25 02:50:24;;;;;;;11.02;9.93;;;8.60;99.90;;;;;;5102182;27;20043;-86
2022/05/25 02:52:50;;;;;;;11.55;9.50;;;9.50;99.90;;;;;;5104678;27;20494;-85
2022/05/25 02:55:16;;;;;;;14.25;10.18;;;9.60;99.90;;;;;;5107668;27;20043;-81
2022/05/25 02:57:42;;;;;;;12.20;10.13;;;9.30;99.90;;;;;;5122984;27;20368;-85
2022/05/25 03:00:08;;;;;;;14.95;10.57;;;9.50;99.90;;;;;;5104017;27;20061;-81
2022/05/25 03:02:35;;;;;;;10.73;9.60;;;9.60;99.90;;;;;;5143056;27;20099;-83
2022/05/25 03:05:01;;;;;;;11.73;9.85;;;11.00;99.90;;;;;;5108297;27;20371;-82
2022/05/25 03:07:26;;;;;;;13.45;9.98;;;9.60;99.90;;;;;;5107087;27;20057;-82
2022/05/25 03:09:52;;;;;;;12.38;10.23;;;9.60;99.90;;;;;;5140526;27;20043;-83
2022/05/25 03:12:18;;;;;;;10.77;9.00;;;9.40;99.90;;;;;;5140985;27;20108;-81
2022/05/25 03:14:44;;;;;;;10.88;9.77;;;11.10;99.90;;;;;;5143541;27;20031;-82
2022/05/25 03:17:15;;;;;;;12.40;10.90;;;9.20;99.90;;;;;;5108801;27;20050;-83
2022/05/25 03:19:42;;;;;;;13.13;10.15;;;9.60;99.90;;;;;;5121918;27;20128;-84
2022/05/25 03:22:08;;;;;;;15.45;9.98;;;9.50;99.90;;;;;;5121988;27;20061;-84
2022/05/25 03:24:34;;;;;;;11.70;10.50;;;10.80;99.90;;;;;;5110777;27;20078;-82
2022/05/25 03:27:00;;;;;;;11.20;9.75;;;9.50;99.90;;;;;;5124958;27;20524;-83
2022/05/25 03:29:26;;;;;;;13.02;10.43;;;10.20;99.90;;;;;;5124677;27;20043;-84
2022/05/25 03:31:53;;;;;;;13.95;11.40;;;9.20;99.90;;;;;;5104560;27;20050;-84
2022/05/25 03:34:19;;;;;;;11.05;9.85;;;9.40;99.90;;;;;;5139603;27;20035;-84
2022/05/25 03:36:45;;;;;;;10.32;9.05;;;10.60;99.90;;;;;;5125574;27;20084;-84
2022/05/25 03:39:11;;;;;;;10.95;9.85;;;10.50;99.90;;;;;;5124763;27;20336;-85
2022/05/25 03:41:37;;;;;;;13.57;10.95;;;9.40;99.90;;;;;;5106091;27;20125;-85
2022/05/25 03:44:03;;;;;;;11.25;10.10;;;9.30;99.90;;;;;;5104709;27;20027;-85
2022/05/25 03:46:28;;;;;;;16.50;11.20;;;9.50;99.90;;;;;;5122572;27;20046;-82
2022/05/25 03:48:54;;;;;;;11.73;10.30;;;10.20;99.90;;;;;;5142616;27;20474;-83
2022/05/25 03:51:20;;;;;;;15.80;11.32;;;9.40;99.90;;;;;;5124801;27;20346;-84
2022/05/25 03:53:46;;;;;;;11.98;10.65;;;9.40;99.90;;;;;;5105619;27;20122;-79
2022/05/25 03:56:12;;;;;;;12.27;9.93;;;9.10;99.90;;;;;;5120802;27;20101;-83
2022/05/25 03:58:37;;;;;;;16.98;12.63;;;9.30;99.90;;;;;;5106067;27;20094;-84
2022/05/25 04:01:03;;;;;;;13.48;11.13;;;9.10;99.90;;;;;;5107667;27;20046;-80
2022/05/25 04:03:29;;;;;;;13.70;11.90;;;9.40;99.90;;;;;;5142386;27;20035;-85
2022/05/25 04:05:54;;;;;;;10.88;9.80;;;9.40;99.90;;;;;;5121162;27;20035;-84
2022/05/25 04:08:20;;;;;;;14.25;10.27;;;9.40;99.90;;;;;;5104298;27;20047;-85
2022/05/25 04:10:46;;;;;;;15.00;11.20;;;10.60;99.90;;;;;;5142337;27;20404;-86
2022/05/25 04:13:11;;;;;;;13.15;10.23;;;11.20;99.90;;;;;;5124682;27;20538;-82
2022/05/25 04:15:37;;;;;;;12.43;10.70;;;9.40;99.90;;;;;;5141768;27;20043;-83
2022/05/25 04:18:03;;;;;;;18.60;11.43;;;9.40;99.90;;;;;;5119881;27;20082;-85
2022/05/25 04:20:32;;;;;;;12.40;10.40;;;9.50;99.90;;;;;;5121753;27;20406;-85
2022/05/25 04:22:58;;;;;;;14.38;11.45;;;10.50;99.90;;;;;;5124267;27;20059;-81
2022/05/25 04:25:24;;;;;;;14.98;10.60;;;10.60;99.90;;;;;;5107724;27;20375;-81
2022/05/25 04:27:52;;;;;;;11.80;10.18;;;10.50;99.90;;;;;;5104748;27;20122;-83
2022/05/25 04:30:22;;;;;;;12.10;10.80;;;11.20;99.90;;;;;;5102775;27;20074;-79
2022/05/25 04:32:47;;;;;;;12.82;10.98;;;9.50;99.90;;;;;;5123733;27;20068;-83
2022/05/25 04:35:15;;;;;;;12.90;10.90;;;9.50;99.90;;;;;;5106554;27;20035;-84
2022/05/25 04:37:52;;;;;;;12.63;10.40;;;10.80;99.90;;;;;;5105133;27;20043;-83
2022/05/25 04:40:25;;;;;;;12.73;10.57;;;10.60;99.90;;;;;;5103443;27;20039;-85
2022/05/25 04:42:51;;;;;;;11.70;10.00;;;9.60;99.90;;;;;;5106626;27;20035;-83
2022/05/25 04:45:18;;;;;;;12.77;10.18;;;10.50;99.90;;;;;;5123644;27;20047;-81
2022/05/25 04:47:43;;;;;;;13.25;10.65;;;9.70;99.90;;;;;;5105334;27;20504;-86
2022/05/25 04:50:11;;;;;;;12.68;11.05;;;9.50;99.90;;;;;;5119617;27;20045;-82
2022/05/25 04:52:38;;;;;;;10.82;9.80;;;8.70;99.90;;;;;;5120920;27;20043;-83
2022/05/25 04:55:06;;;;;;;16.45;11.40;;;9.70;99.90;;;;;;5123957;27;20083;-84
2022/05/25 04:57:31;;;;;;;12.55;10.13;;;9.70;99.90;;;;;;5124277;27;20038;-86
2022/05/25 04:59:59;;;;;;;12.40;10.80;;;9.80;99.90;;;;;;5102014;27;20039;-84
2022/05/25 05:02:25;;;;;;;13.48;10.30;;;9.80;99.90;;;;;;5138905;27;20075;-83
2022/05/25 05:04:51;;;;;;;14.10;11.35;;;9.70;99.90;;;;;;5123205;27;20057;-80
2022/05/25 05:07:18;;;;;;;16.75;11.50;;;11.50;99.90;;;;;;5123241;27;20042;-85
2022/05/25 05:09:45;;;;;;;15.07;11.25;;;11.00;99.90;;;;;;5105545;27;20074;-85
2022/05/25 05:12:13;;;;;;;12.40;11.07;;;9.90;99.90;;;;;;5121913;27;20039;-85
2022/05/25 05:14:39;;;;;;;14.65;11.00;;;10.00;99.90;;;;;;5107289;27;20026;-84
2022/05/25 05:17:06;;;;;;;13.98;11.32;;;9.70;99.90;;;;;;5102368;27;20720;-85
2022/05/25 05:19:32;;;;;;;18.10;10.63;;;10.00;99.90;;;;;;5119134;27;20042;-81
2022/05/25 05:21:59;;;;;;;12.30;10.25;;;11.30;99.90;;;;;;5106033;27;20343;-77
2022/05/25 05:24:28;;;;;;;12.85;11.05;;;10.20;99.90;;;;;;5123744;27;20080;-77
2022/05/25 05:26:54;;;;;;;11.38;10.38;;;10.20;99.90;;;;;;5138298;27;20511;-77
2022/05/25 05:29:20;;;;;;;14.48;10.15;;;10.20;99.90;;;;;;5137909;27;20031;-77
2022/05/25 05:31:49;;;;;;;12.85;10.52;;;9.90;99.90;;;;;;5104488;27;20137;-78
2022/05/25 05:34:14;;;;;;;10.75;9.63;;;10.30;99.90;;;;;;5104844;27;20113;-82
2022/05/25 05:36:47;;;;;;;13.52;10.90;;;10.30;99.90;;;;;;5106039;27;20163;-80
2022/05/25 05:39:15;;;;;;;11.45;10.20;;;10.20;99.90;;;;;;5102025;27;20039;-83
2022/05/25 05:41:46;;;;;;;11.50;10.35;;;10.50;99.90;;;;;;5102523;27;20031;-84
2022/05/25 05:44:16;;;;;;;12.00;10.75;;;12.10;99.90;;;;;;5122992;27;20030;-85
2022/05/25 05:46:43;;;;;;;13.10;10.70;;;10.30;99.90;;;;;;5140888;27;20117;-83
2022/05/25 05:49:10;;;;;;;12.18;10.50;;;10.50;99.90;;;;;;5118078;27;20477;-83
2022/05/25 05:51:36;;;;;;;14.55;11.23;;;10.60;99.90;;;;;;5085951;28;20066;-83
2022/05/25 05:54:02;;;;;;;12.13;10.60;;;10.70;99.90;;;;;;5122854;27;20087;-83
2022/05/25 05:56:28;;;;;;;12.63;10.55;;;10.70;99.90;;;;;;5122737;27;20030;-85
2022/05/25 05:58:54;;;;;;;11.82;10.52;;;10.60;99.90;;;;;;5102984;27;20038;-85
2022/05/25 06:01:20;;;;;;;12.95;11.07;;;12.10;99.90;;;;;;5119254;28;20077;-82
2022/05/25 06:03:45;;;;;;;13.00;11.00;;;10.60;99.90;;;;;;5102745;27;20031;-84
2022/05/25 06:06:11;;;;;;;12.20;10.88;;;12.40;99.90;;;;;;5141265;27;20097;-77
2022/05/25 06:08:36;;;;;;;15.32;12.13;;;10.90;99.90;;;;;;5121970;27;20034;-83
2022/05/25 06:11:02;;;;;;;13.65;10.30;;;10.80;99.90;;;;;;5119329;27;20047;-80
2022/05/25 06:13:28;;;;;;;16.35;11.02;;;11.00;99.90;;;;;;5119907;28;20482;-83
2022/05/25 06:21:24;;;;;;;16.52;11.00;;;11.40;99.90;;;;;;5113391;28;20039;-79
2022/05/25 06:23:50;;;;;;;11.85;9.57;;;11.40;99.90;;;;;;5120325;27;20067;-79
2022/05/25 06:26:16;;;;;;;12.95;9.48;;;13.30;99.90;;;;;;5122399;27;20089;-82
2022/05/25 06:28:43;;;;;;;14.63;9.75;;;11.60;99.90;;;;;;5107035;27;20048;-84
2022/05/25 06:31:09;;;;;;;14.82;9.77;;;11.50;99.90;;;;;;5141017;27;20035;-84
2022/05/25 06:33:35;;;;;;;13.00;9.10;;;12.00;99.90;;;;;;5106521;27;20039;-84
2022/05/25 06:36:18;;;;;;;10.85;8.65;;;13.20;99.90;;;;;;5108364;27;20083;-85
2022/05/25 06:38:44;;;;;;;12.50;8.80;;;11.90;99.90;;;;;;5126134;27;20417;-85
2022/05/25 06:41:10;;;;;;;10.45;8.65;;;12.00;99.90;;;;;;5122905;27;20031;-82
2022/05/25 06:43:36;;;;;;;9.35;8.38;;;12.10;99.90;;;;;;5123400;27;20126;-84
2022/05/25 06:46:02;;;;;;;10.23;8.80;;;12.20;99.90;;;;;;5107954;27;20142;-83
2022/05/25 06:48:28;;;;;;;9.57;8.57;;;12.20;99.90;;;;;;5126687;27;20062;-82
2022/05/25 06:50:53;;;;;;;12.15;8.55;;;12.30;99.90;;;;;;5107422;27;20556;-86
2022/05/25 06:53:19;;;;;;;8.85;7.72;;;13.30;99.90;;;;;;5123578;27;20543;-81
2022/05/25 06:55:46;;;;;;;9.20;7.72;;;12.50;99.90;;;;;;5123324;27;20031;-83
2022/05/25 06:58:12;;;;;;;11.68;8.60;;;12.60;99.90;;;;;;5131921;27;20126;-82
2022/05/25 07:00:37;;;;;;;11.52;8.68;;;12.60;99.90;;;;;;5125831;27;20542;-84
2022/05/25 07:03:04;;;;;;;13.48;9.43;;;12.60;99.90;;;;;;5108585;27;20447;-84
2022/05/25 07:05:30;;;;;;;8.93;7.38;;;12.80;99.90;;;;;;5108913;27;20047;-84
2022/05/25 07:07:56;;;;;;;9.02;7.15;;;12.90;99.90;;;;;;5123985;27;20043;-81
2022/05/25 07:10:22;;;;;;;10.32;7.35;;;12.50;99.90;;;;;;5105678;27;20043;-83
2022/05/25 07:12:47;;;;;;;9.38;6.95;;;13.00;99.90;;;;;;5121639;27;20418;-79
2022/05/25 07:15:13;;;;;;;12.13;7.25;;;13.10;99.90;;;;;;5144504;27;20045;-85
2022/05/25 07:17:38;;;;;;;13.13;6.40;;;13.10;99.90;;;;;;5125841;27;20033;-84
2022/05/25 07:20:06;;;;;;;8.38;7.07;;;13.20;99.90;;;;;;5122410;27;20057;-83
2022/05/25 07:22:33;;;;;;;8.20;6.97;;;13.20;99.90;;;;;;5122472;27;20085;-85
2022/05/25 07:24:58;;;;;;;8.25;6.47;;;13.30;99.90;;;;;;5106196;27;20043;-82
2022/05/25 07:27:24;;;;;;;8.20;6.97;;;13.30;99.90;;;;;;5125561;27;20050;-84
2022/05/25 07:29:50;;;;;;;10.07;6.25;;;13.40;99.90;;;;;;5125255;27;20038;-83
2022/05/25 07:32:16;;;;;;;13.38;6.68;;;13.40;99.90;;;;;;5104966;27;20058;-87
2022/05/25 07:34:50;;;;;;;8.57;6.13;;;14.60;99.90;;;;;;5121898;27;20116;-87
2022/05/25 07:37:21;;;;;;;5.82;5.28;;;13.50;99.90;;;;;;5097025;27;20047;-80
2022/05/25 07:40:04;;;;;;;6.18;4.97;;;13.80;99.90;;;;;;5121565;27;20039;-79
2022/05/25 07:42:31;;;;;;;6.13;4.90;;;13.90;99.90;;;;;;5116044;27;20047;-78
2022/05/25 07:44:59;;;;;;;5.10;4.60;;;13.80;99.90;;;;;;5141167;27;20319;-81
2022/05/25 07:47:27;;;;;;;5.43;4.93;;;14.50;99.90;;;;;;5125205;27;20042;-86
2022/05/25 07:49:53;;;;;;;7.30;5.63;;;13.90;99.90;;;;;;5107784;27;20191;-85
2022/05/25 07:52:22;;;;;;;7.90;6.40;;;15.40;99.90;;;;;;5121465;27;20122;-86
2022/05/25 07:54:48;;;;;;;8.80;5.65;;;14.00;99.90;;;;;;5139686;27;20039;-84
2022/05/25 07:57:14;;;;;;;9.07;5.70;;;15.00;99.90;;;;;;5124117;27;20050;-86
2022/05/25 07:59:40;;;;;;;7.85;5.50;;;14.50;99.90;;;;;;5125155;27;20499;-82
2022/05/25 08:08:07;;;;;;;9.02;5.80;;;15.50;99.90;;;;;;5140371;27;20043;-83
2022/05/25 08:10:33;;;;;;;11.98;5.55;;;14.40;99.90;;;;;;5108410;27;20039;-85
2022/05/25 08:13:00;;;;;;;7.25;6.55;;;14.40;99.90;;;;;;5124047;27;20489;-81
2022/05/25 08:15:28;;;;;;;7.03;5.25;;;14.50;99.90;;;;;;5104174;27;20043;-81
2022/05/25 08:17:54;;;;;;;7.15;5.05;;;14.00;99.90;;;;;;5103689;27;20049;-83
2022/05/25 08:20:21;;;;;;;7.95;5.13;;;14.50;99.90;;;;;;5143577;27;20428;-83
2022/05/25 08:22:47;;;;;;;6.22;4.68;;;14.60;99.90;;;;;;5107280;27;20030;-87
2022/05/25 08:25:14;;;;;;;4.95;4.30;;;14.70;99.90;;;;;;5088473;27;20408;-86
2022/05/25 08:27:40;;;;;;;5.20;4.00;;;15.80;99.90;;;;;;5120973;27;20047;-84
2022/05/25 08:30:09;;;;;;;6.20;4.00;;;15.40;99.90;;;;;;5104022;27;20540;-84
2022/05/25 08:32:36;;;;;;;7.18;3.78;;;14.80;99.90;;;;;;5107997;27;20042;-85
2022/05/25 08:35:02;;;;;;;6.68;3.85;;;16.10;99.90;;;;;;5106685;27;20104;-86
2022/05/25 08:37:28;;;;;;;6.97;4.07;;;14.90;99.90;;;;;;5139581;27;20496;-82
2022/05/25 08:39:53;;;;;;;6.78;3.85;;;14.90;99.90;;;;;;5139536;27;20135;-85
2022/05/25 08:42:24;;;;;;;7.75;3.40;;;16.00;99.90;;;;;;5106837;27;20577;-85
2022/05/25 08:44:53;;;;;;;8.25;3.05;;;14.90;99.90;;;;;;5074335;27;20026;-87
2022/05/25 08:47:18;;;;;;;5.00;3.30;;;14.90;99.90;;;;;;5123700;27;20102;-86
2022/05/25 08:49:47;;;;;;;3.88;2.95;;;15.00;99.90;;;;;;5144269;27;20081;-88
2022/05/25 08:52:24;;;;;;;3.13;2.88;;;15.10;99.90;;;;;;5104519;27;20101;-85
2022/05/25 08:54:49;;;;;;;4.70;3.47;;;15.20;99.90;;;;;;5124620;27;20077;-86
2022/05/25 08:57:22;;;;;;;4.53;2.55;;;16.10;99.90;;;;;;5104918;27;20592;-82
2022/05/25 08:59:56;;;;;;;4.80;2.38;;;15.10;99.90;;;;;;5120128;27;20039;-84
2022/05/25 09:02:45;;;;;;;8.07;2.40;;;15.20;99.90;;;;;;5124541;27;20375;-83
2022/05/25 09:05:28;;;;;;;4.03;3.15;;;15.20;99.90;;;;;;5121775;27;20458;-83
2022/05/25 09:08:11;;;;;;;5.47;2.85;;;15.20;99.90;;;;;;5120135;27;20162;-82
2022/05/25 09:10:42;;;;;;;3.15;2.60;;;15.20;99.90;;;;;;5079611;27;20126;-86
2022/05/25 09:13:33;;;;;;;3.47;2.50;;;15.80;99.90;;;;;;5102736;27;20047;-86
2022/05/25 09:16:18;;;;;;;4.75;2.47;;;15.30;99.90;;;;;;5123170;27;20070;-84
2022/05/25 09:19:05;;;;;;;2.45;2.13;;;15.30;99.90;;;;;;5113975;27;20428;-87
2022/05/25 09:21:36;;;;;;;4.13;2.40;;;16.30;99.90;;;;;;5086047;27;20397;-87
2022/05/25 09:24:09;;;;;;;5.70;2.53;;;16.50;99.90;;;;;;5123806;27;20402;-85
2022/05/25 09:26:35;;;;;;;7.03;3.53;;;15.50;99.90;;;;;;5112436;27;20039;-83
2022/05/25 09:29:06;;;;;;;8.90;2.90;;;16.50;99.90;;;;;;5102647;27;20047;-82
2022/05/25 09:31:46;;;;;;;5.43;3.20;;;15.40;99.90;;;;;;5111535;27;20546;-80
2022/05/25 09:34:19;;;;;;;6.95;3.47;;;15.40;99.90;;;;;;5137832;27;20046;-82
2022/05/25 09:36:52;;;;;;;6.78;2.90;;;15.50;99.90;;;;;;5103091;27;20039;-83
2022/05/25 09:39:31;;;;;;;3.38;2.47;;;15.90;99.90;;;;;;5121438;27;20075;-86
2022/05/25 09:42:03;;;;;;;6.40;2.60;;;15.50;99.90;;;;;;5123043;27;20043;-82
2022/05/25 09:44:29;;;;;;;4.18;2.42;;;15.50;99.90;;;;;;5120598;27;20039;-85
2022/05/25 09:47:00;;;;;;;4.80;2.92;;;15.60;99.90;;;;;;5101889;28;20482;-84
2022/05/25 09:49:31;;;;;;;2.58;2.38;;;17.00;99.90;;;;;;5140650;27;20120;-87
2022/05/25 09:52:02;;;;;;;3.40;2.28;;;15.90;99.90;;;;;;5122737;27;20056;-85
2022/05/25 09:54:35;;;;;;;4.78;2.88;;;16.10;99.90;;;;;;5122695;27;20509;-84
2022/05/25 09:57:17;;;;;;;3.17;2.90;;;15.90;99.90;;;;;;5122965;27;20122;-82
2022/05/25 09:59:56;;;;;;;7.53;3.17;;;16.00;99.90;;;;;;5130697;27;20031;-83
2022/05/25 10:02:37;;;;;;;7.38;3.20;;;15.90;99.90;;;;;;5120457;27;20517;-85
2022/05/25 10:05:25;;;;;;;5.22;2.90;;;15.90;99.90;;;;;;5123059;27;20039;-85
2022/05/25 10:07:53;;;;;;;3.42;2.83;;;15.90;99.90;;;;;;5119258;28;20419;-87
2022/05/25 10:10:44;;;;;;;5.60;3.47;;;17.00;99.90;;;;;;5103483;27;20045;-83
2022/05/25 10:13:23;;;;;;;5.50;3.47;;;15.80;99.90;;;;;;5122538;27;20485;-82
2022/05/25 10:15:51;;;;;;;6.55;3.67;;;15.70;99.90;;;;;;5130945;27;20452;-87
2022/05/25 10:18:36;;;;;;;8.45;3.65;;;15.40;99.90;;;;;;5102765;27;20158;-86
2022/05/25 10:21:04;;;;;;;5.05;2.92;;;15.70;99.90;;;;;;5141356;27;20041;-83
2022/05/25 10:23:30;;;;;;;3.20;2.90;;;15.70;99.90;;;;;;5120065;27;20041;-83
2022/05/25 10:26:18;;;;;;;4.38;2.80;;;15.60;99.90;;;;;;5102115;28;20309;-82
2022/05/25 10:28:47;;;;;;;4.00;2.88;;;15.50;99.90;;;;;;5094773;28;20767;-87
2022/05/25 10:37:09;;;;;;;3.30;2.78;;;16.20;99.90;;;;;;5138454;27;20047;-86
2022/05/25 10:39:41;;;;;;;6.28;3.63;;;15.50;99.90;;;;;;5140860;27;20585;-82
2022/05/25 10:42:15;;;;;;;6.40;3.22;;;15.50;99.90;;;;;;5105734;27;20043;-81
2022/05/25 10:44:59;;;;;;;4.65;3.28;;;15.40;99.90;;;;;;5110916;28;20151;-83
2022/05/25 10:47:57;;;;;;;3.37;3.03;;;15.40;99.90;;;;;;5138989;27;20131;-79
2022/05/25 10:50:35;;;;;;;7.75;3.53;;;15.40;99.90;;;;;;5104086;27;20038;-78
2022/05/25 10:53:24;;;;;;;5.20;3.03;;;15.30;99.90;;;;;;5118512;28;20047;-86
2022/05/25 10:56:17;;;;;;;4.38;3.30;;;15.40;99.90;;;;;;5095321;28;20080;-80
2022/05/25 10:58:56;;;;;;;4.38;3.55;;;15.20;99.90;;;;;;5093271;28;20414;-78
2022/05/25 11:01:39;;;;;;;6.68;3.53;;;15.20;99.90;;;;;;5119716;27;20539;-80
2022/05/25 11:04:34;;;;;;;5.43;3.72;;;15.30;99.90;;;;;;5104623;27;20482;-82
2022/05/25 11:07:33;;;;;;;5.32;3.45;;;15.30;99.90;;;;;;5095669;28;20053;-85
2022/05/25 11:10:07;;;;;;;7.65;4.05;;;15.40;99.90;;;;;;5127385;27;20522;-82
2022/05/25 11:12:52;;;;;;;8.23;4.37;;;15.50;99.90;;;;;;5121203;27;20043;-81
2022/05/25 11:15:45;;;;;;;5.85;4.80;;;15.50;99.90;;;;;;5123836;27;20039;-81
2022/05/25 11:18:48;;;;;;;4.88;4.07;;;15.40;99.90;;;;;;5099986;27;20931;-85
2022/05/25 11:21:25;;;;;;;7.68;4.28;;;15.20;99.90;;;;;;5100502;27;20479;-80
2022/05/25 11:24:03;;;;;;;5.28;3.38;;;15.20;99.90;;;;;;5103039;28;20032;-78
2022/05/25 11:27:00;;;;;;;6.85;3.80;;;15.20;99.90;;;;;;5120894;27;20051;-86
2022/05/25 11:29:25;;;;;;;9.13;4.90;;;15.30;99.90;;;;;;5108703;27;20082;-85
2022/05/25 11:32:02;;;;;;;8.45;4.72;;;15.50;99.90;;;;;;5126143;27;20070;-85
2022/05/25 11:35:11;;;;;;;4.95;4.20;;;15.60;99.90;;;;;;5108512;27;20039;-83
2022/05/25 11:37:55;;;;;;;4.22;3.83;;;15.80;99.90;;;;;;5106983;27;20092;-85
2022/05/25 11:40:44;;;;;;;9.15;3.55;;;15.90;99.90;;;;;;5144002;27;20046;-82
2022/05/25 11:43:13;;;;;;;5.15;4.20;;;16.10;99.90;;;;;;5116843;27;20043;-86
2022/05/25 11:45:57;;;;;;;8.43;3.78;;;16.20;99.90;;;;;;5107427;27;20046;-83
2022/05/25 11:49:02;;;;;;;7.68;3.58;;;16.40;99.90;;;;;;5143503;27;20030;-90
2022/05/25 11:51:38;;;;;;;7.65;4.10;;;16.50;99.90;;;;;;5118199;27;20081;-87
2022/05/25 11:54:26;;;;;;;8.98;4.30;;;17.90;99.90;;;;;;5104532;27;20043;-89
2022/05/25 11:57:15;;;;;;;7.03;5.30;;;16.60;99.90;;;;;;5122174;27;20464;-79
2022/05/25 12:00:04;;;;;;;7.85;4.85;;;16.60;99.90;;;;;;5106949;27;20050;-86
2022/05/25 12:02:44;;;;;;;6.47;3.70;;;16.60;99.90;;;;;;5124253;27;20042;-85
2022/05/25 12:05:17;;;;;;;4.65;3.22;;;16.70;99.90;;;;;;5121209;27;20081;-82
2022/05/25 12:08:27;;;;;;;2.83;1.90;;;16.70;99.90;;;;;;5142135;27;20039;-84
2022/05/25 12:11:24;;;;;;;4.70;2.55;;;16.70;99.90;;;;;;5042887;28;20227;-85
2022/05/25 12:14:17;;;;;;;8.40;2.45;;;16.60;99.90;;;;;;5107341;27;20091;-86
2022/05/25 12:16:45;;;;;;;10.95;2.45;;;16.70;99.90;;;;;;5124212;27;20042;-87
2022/05/25 12:19:18;;;;;;;4.32;2.13;;;16.60;99.90;;;;;;5105678;27;20042;-85
2022/05/25 12:21:50;;;;;;;4.88;2.40;;;16.60;99.90;;;;;;5113558;27;20378;-86
2022/05/25 12:24:20;;;;;;;3.05;2.67;;;16.60;99.90;;;;;;5110021;27;20039;-86
2022/05/25 12:26:46;;;;;;;7.20;3.30;;;16.50;99.90;;;;;;5125140;27;20418;-88
2022/05/25 12:29:27;;;;;;;8.48;2.38;;;16.60;99.90;;;;;;5107387;27;20042;-89
2022/05/25 12:31:56;;;;;;;5.65;0.50;;;16.60;99.90;;;;;;5105150;27;20054;-94
2022/05/25 12:34:35;;;;;;;3.72;0.35;;;17.30;99.90;;;;;;5122576;27;20130;-89
2022/05/25 12:37:03;;;;;;;5.68;0.20;;;17.50;99.90;;;;;;5097325;27;20092;-92
2022/05/25 12:39:47;;;;;;;2.33;0.40;;;16.60;99.90;;;;;;5107186;27;20047;-83
2022/05/25 12:42:25;;;;;;;13.48;0.68;;;16.70;99.90;;;;;;5122557;27;20049;-92
2022/05/25 12:50:33;;;;;;;5.60;0.25;;;17.60;99.50;;;;;;5128987;27;20040;-86
2022/05/25 12:53:29;;;;;;;1.92;0.35;;;17.20;97.40;;;;;;5124203;27;20054;-84
2022/05/25 12:56:02;;;;;;;4.57;1.17;;;17.10;96.40;;;;;;5131303;27;20084;-80
2022/05/25 12:58:34;;;;;;;4.43;0.70;;;17.20;96.90;;;;;;5132598;27;20080;-88
2022/05/25 13:01:06;;;;;;;6.35;0.82;;;18.40;97.80;;;;;;5128396;27;20428;-91
2022/05/25 13:03:45;;;;;;;2.58;0.38;;;17.80;96.50;;;;;;5126859;27;20395;-91
2022/05/25 13:06:11;;;;;;;1.85;0.28;;;17.40;97.00;;;;;;5099905;27;20035;-89
2022/05/25 13:08:46;;;;;;;0.55;0.17;;;17.50;95.10;;;;;;5123206;27;20054;-84
2022/05/25 13:11:33;;;;;;;4.82;0.35;;;17.50;95.00;;;;;;5111006;27;20384;-91
2022/05/25 13:14:06;;;;;;;4.97;0.45;;;17.40;96.90;;;;;;5119849;27;20042;-91
2022/05/25 13:16:41;;;;;;;5.43;0.50;;;17.40;97.00;;;;;;5148012;27;20050;-87
2022/05/25 13:19:37;;;;;;;4.57;0.50;;;18.40;97.90;;;;;;5117642;27;20446;-83
2022/05/25 13:22:03;;;;;;;2.42;0.47;;;17.30;98.50;;;;;;5114264;27;20100;-89
2022/05/25 13:24:56;;;;;;;3.35;0.40;;;17.20;96.70;;;;;;5104955;27;20039;-81
2022/05/25 13:27:37;;;;;;;1.17;0.50;;;17.20;96.80;;;;;;5121779;27;20047;-81
2022/05/25 13:30:14;;;;;;;2.05;0.15;;;17.10;97.00;;;;;;5125416;27;20035;-88
2022/05/25 13:32:52;;;;;;;1.77;0.20;;;17.10;97.70;;;;;;5142050;27;20039;-89
2022/05/25 13:35:20;;;;;;;5.68;0.75;;;17.10;94.80;;;;;;5139062;27;20046;-91